Portada
METAR-TAF:

METAR-TAF

Aeroports :

Tarawa, Kiribati

latitud: 01-21N, longitud: 172-55E, altitud: 2 m

Observació

L'informe es va fer fa 37 minuts, a les 08:00 UTC
Vent 6 kt del Est/Sud-Est
Temperatura 27°C
Humitat 74%
Pressió 1010 hPa
Visibilitat 10 km o més
Escasses núvols a una alçada de 2000 ft

METAR: NGTA 240800Z 11006KT 9999 FEW020 27/22 Q1010

Hora: 22:37 (08:37 UTC)

Pronòstic

L'informe es va fer fa 3 hores i 20 minuts, a les 05:17 UTC
Pronòstic vàlid del 24 a les 06 UTC al 25 a les 06 UTC
Vent 6 kt del Est/Sud-Est
Visibilitat 10 km o més
Escasses núvols a una alçada de 2000 ft

TAF: NGTA 240517Z 2406/2506 12006KT 9999 FEW020

Observacions i pronòstics meteorològics de més de 4000 aeroports (METAR i TAF).

Les estacions disponibles són els punts grocs i vermells al mapa.

Posi el ratolí al punt desitjat per veure el nom de l'estació.

Feu clic per veure les observacions i els pronòstics meteorològics.

Per canviar el mapa: feu clic els botons verds amb una creu de color negre per apropar; al botó verd amb un guió per allunyar la imatge; o en les fletxes verdes per a mapes adjacents.


METAR-TAF: